• Join FlightAware (Why Join?)
  • Login
  • US Flag 
03:53AM EDT


 

Airport Tracker/Info


-or-


 

Live Flight TrackerFlight Track Log ✈ GJS6221 ✈ 14-Aug-2013 ✈ CYUL - KLGA

Flight Track Log - Related Links

Times and Time Zones

All times are in EDT time to prevent confusion due to time zone crossing. See the GJS6221 flight status page for this flight to view local times or setup timezone preferences in your user account.

Time Position Orientation Groundspeed Altitude Reporting Facility
EDT Latitude Longitude Course Direction KTS MPH feet Rate Location/Type
07:19AM 45.4497 -73.7475 207° Southwest 459 528 1,400  Level Boston Center
07:19AM 45.4167 -73.7667 202° Southwest 170 196 3,000 2,640 Climbing Montreal Center
07:20AM 45.3667 -73.8167 215° Southwest 240 276 5,800 2,880 Climbing Montreal Center
07:21AM 45.3000 -73.8500 199° South 260 299 8,800 2,580 Climbing Montreal Center
07:22AM 45.2167 -73.8833 196° South 290 334 11,000 2,100 Climbing Montreal Center
07:23AM 45.1167 -73.8833 180° South 340 391 13,000 2,100 Climbing Montreal Center
07:24AM 44.9896 -74.0788 207° Southwest  Level FlightAware Approximate
07:24AM 45.0333 -73.8833 180° South 360 414 15,200  Level Montreal Center
07:25AM 44.9167 -73.8667 174° South 370 426 17,700 2,340 Climbing Montreal Center
07:26AM 44.8167 -73.8667 180° South 380 437 19,900 1,920 Climbing Montreal Center
07:27AM 44.7000 -73.8667 180° South 390 449 21,600 1,680 Climbing Montreal Center
07:28AM 44.6000 -73.8500 173° South 400 460 23,300 1,800 Climbing Montreal Center
07:29AM 44.4833 -73.8500 180° South 390 449 25,300 1,800 Climbing Montreal Center
07:30AM 44.3833 -73.8667 187° South 390 449 27,000 1,680 Climbing Montreal Center
07:31AM 44.2833 -73.8500 173° South 380 437 28,700 1,500 Climbing Montreal Center
07:32AM 44.1833 -73.8500 180° South 370 426 30,100 1,440 Climbing Montreal Center
07:33AM 44.0667 -73.8500 180° South 360 414 31,600 900 Climbing Montreal Center
07:34AM 43.9667 -73.8333 173° South 360 414 32,000 180 Climbing Montreal Center
07:35AM 43.8667 -73.8333 180° South 370 426 32,000 -540 Level Montreal Center
07:36AM 43.7667 -73.8167 173° South 380 437 31,000 -960 Descending Montreal Center
07:37AM 43.6667 -73.8167 180° South 380 437 30,100 -1,020 Descending Montreal Center
07:38AM 43.5500 -73.8167 180° South 370 426 29,000 -1,020 Descending Montreal Center
07:39AM 43.4500 -73.8333 187° South 370 426 28,100 -840 Descending Montreal Center
07:41AM 43.3381 -73.8275 178° South 366 421 27,000 -480 Descending Boston Center
07:42AM 43.2403 -73.8253 179° South 360 414 27,000 -300 Level Boston Center
07:43AM 43.1403 -73.8200 178° South 360 414 26,500 -960 Descending Boston Center
07:44AM 43.0381 -73.8150 178° South 360 414 25,200 -1,320 Descending Boston Center
07:45AM 42.9339 -73.8156 180° South 366 421 24,000 -900 Descending Boston Center
07:46AM 42.8319 -73.8103 178° South 366 421 23,500 -840 Descending Boston Center
07:47AM 42.7278 -73.7997 176° South 366 421 22,400 -540 Descending Boston Center
07:49AM 42.5117 -73.7583 172° South 386 444 22,000 -180 Descending Boston Center
07:50AM 42.4014 -73.7333 170° South 391 450 21,900 -840 Descending Boston Center
07:51AM 42.2850 -73.7031 169° South 398 458 20,300 -1,380 Descending Boston Center
07:52AM 42.1975 -73.6900 174° South 357 411 19,200 -720 Descending Boston Center
07:53AM 42.1206 -73.6772 173° South 334 384 19,000 -120 Descending Boston Center
07:54AM 42.0272 -73.6531 169° South 316 364 19,000 -660 Level Boston Center
07:55AM 41.9378 -73.6375 173° South 316 364 17,700 -1,380 Descending Boston Center
07:56AM 41.8767 -73.6753 205° Southwest 259 298 16,200 -1,380 Descending Boston Center
07:57AM 41.8756 -73.7728 269° West 229 264 15,000 -1,380 Descending Boston Center
07:58AM 41.8703 -73.8703 266° West 257 296 13,600 -1,020 Descending Boston Center
07:59AM 41.8586 -73.9647 261° West 269 310 13,000 -600 Descending Boston Center
08:00AM 41.7875 -73.9853 192° South 232 267 12,400 -1,140 Descending Boston Center
08:01AM 41.7044 -73.9583 166° South 265 305 10,800 -1,200 Descending Boston Center
08:02AM 41.6639 -73.8767 124° Southeast 260 299 10,000 -420 Descending Boston Center
08:03AM 41.6714 -73.7714 85° East 250 288 10,000 -300 Level Boston Center
08:04AM 41.6497 -73.6764 107° East 260 299 9,400 -540 Descending Boston Center
08:05AM 41.5786 -73.6861 186° South 230 265 9,000 -180 Descending Boston Center
08:06AM 41.4833 -73.7333 200° South 275 316 9,100 -180 Climbing New York TRACON
08:07AM 41.4000 -73.7667 197° South 273 314 8,600 -1,020 Descending New York TRACON
08:08AM 41.3333 -73.7833 191° South 286 329 7,200 -1,560 Descending New York TRACON
08:09AM 41.2667 -73.7333 151° Southeast 296 341 5,700 -1,020 Descending New York TRACON
08:10AM 41.2000 -73.6667 143° Southeast 272 313 5,100 -300 Descending New York TRACON
08:11AM 41.1333 -73.6167 151° Southeast 276 318 5,100 -300 Level New York TRACON
08:12AM 41.0667 -73.6000 169° South 273 314 4,600 -540 Descending New York TRACON
08:13AM 40.9833 -73.5833 171° South 276 318 4,100 -300 Descending New York TRACON
08:14AM 40.9167 -73.6167 201° Southwest 275 316 4,100  Level New York TRACON
08:15AM 40.8333 -73.6500 197° South 282 325 4,100  Level New York TRACON
08:16AM 40.7833 -73.7000 217° Southwest 267 307 4,100  Level New York TRACON
08:17AM 40.7833 -73.7833 270° West 256 295 4,100 -480 Level New York TRACON
08:18AM 40.7833 -73.8833 270° West 247 284 3,200 -540 Descending New York TRACON
08:19AM 40.7667 -73.9667 255° West 248 285 3,100 -300 Descending New York TRACON
08:20AM 40.7167 -73.9500 166° South 235 270 2,600 -600 Descending New York TRACON
08:21AM 40.7167 -73.8833 90° East 191 220 1,900 -660 Descending New York TRACON
08:23AM 40.7667 -73.8000 52° Northeast 131 151 700 -600 Descending New York TRACON